Terminal Aerodrome Forecast
Issued by NWS

Home | Current Version | Previous Version | Text Only | Print | Product List | Glossary On
Versions: 1 2 3 4 5 6 7 8 9 10 11 12 13
539
FTUS46 KMTR 242339
TAFOAK
TAF
KOAK 242339Z 2500/2606 26015KT P6SM SCT040 OVC060
     FM250300 27018G25KT P6SM SCT025 OVC060
     FM250900 27012KT P6SM SCT025 OVC080
     FM251200 29009KT P6SM BKN200
     FM252000 27013KT P6SM BKN150
     FM260300 27010KT P6SM FEW012 BKN150=

USA.gov is the U.S. government's official web portal to all federal, state and local government web resources and services.